Accueil
METAR-TAF:

METAR-TAF

Aéroports :

Arnhem, Pays-Bas

latitude: 52-04N, longitude: 005-53E, altitude: 48 m

Observation

Le bulletin a été fait il y a 19 minutes, à 08:25 UTC
Vent 8 kt de ouest, variant entre sud-ouest et nord
Température 21°C
Humidité 46%
Pression 1016 hPa
Visibilité 10 km ou plus
Quelques nuages à une hauteur de 28000 ft

METAR: EHDL 230825Z AUTO 28008KT 230V350 9999 FEW280 21/09 Q1016 BLU

Heure: 10:44 (08:44 UTC)


TAF: absent

Observations et prévisions météorologiques de plus de 4000 aéroports (messages METAR et TAF).

Les stations disponibles sont représentées par des disques jaunes et rouges sur la carte.

Passer la souris dessus pour voir le nom de la station.

Cliquer dessus pour voir les observations et prévisions météorologiques.

Pour changer de carte: cliquez sur les boutons verts avec une croix noire pour zoomer, sur le bouton vert avec un tiret pour effectuer un zoom arrière, ou sur les flèches vertes pour les cartes adjacentes.


METAR-TAF: